Time;durP1;ratioP1;P1;durP2;ratioP2;P2;SDS_P1;SDS_P2;PMS_P1;PMS_P2;Temp;Humidity;BMP_temperature;BMP_pressure;BME280_temperature;BME280_humidity;BME280_pressure;Samples;Min_cycle;Max_cycle;Signal;HPM_P1;HPM_P2
2022/01/02 00:01:04;;;;;;;33.67;30.07;;;6.00;99.90;;;;;;4973269;28;20455;-77
2022/01/02 00:03:35;;;;;;;32.47;29.63;;;6.00;99.90;;;;;;4973301;28;20487;-77
2022/01/02 00:06:03;;;;;;;34.30;31.10;;;6.00;99.90;;;;;;4973204;28;20506;-76
2022/01/02 00:08:39;;;;;;;32.83;30.03;;;6.00;99.90;;;;;;4972870;28;21020;-77
2022/01/02 00:11:07;;;;;;;33.77;30.77;;;6.00;99.90;;;;;;4973352;28;20437;-78
2022/01/02 00:13:36;;;;;;;33.50;30.30;;;6.00;99.90;;;;;;4972731;28;21017;-78
2022/01/02 00:16:06;;;;;;;34.37;31.00;;;6.00;99.90;;;;;;4972997;28;20483;-78
2022/01/02 00:18:36;;;;;;;34.27;30.60;;;6.00;99.90;;;;;;4973075;28;20457;-78
2022/01/02 00:21:07;;;;;;;34.37;30.93;;;6.00;99.90;;;;;;4973071;28;20460;-77
2022/01/02 00:23:48;;;;;;;33.40;30.33;;;6.00;99.90;;;;;;4972967;28;20552;-77
2022/01/02 00:26:17;;;;;;;31.97;29.27;;;6.00;99.90;;;;;;4973040;28;20463;-76
2022/01/02 00:28:47;;;;;;;36.30;32.60;;;6.00;99.90;;;;;;4972700;28;20495;-77
2022/01/02 00:31:14;;;;;;;31.10;28.50;;;5.90;99.90;;;;;;4972788;28;20701;-77
2022/01/02 00:33:41;;;;;;;35.57;31.80;;;5.90;99.90;;;;;;4972528;28;20459;-77
2022/01/02 00:36:09;;;;;;;32.93;29.63;;;5.80;99.90;;;;;;4972607;28;20528;-77
2022/01/02 00:38:38;;;;;;;36.00;32.83;;;5.80;99.90;;;;;;4972808;28;20456;-77
2022/01/02 00:41:06;;;;;;;36.43;32.63;;;5.80;99.90;;;;;;4972814;28;20987;-77
2022/01/02 00:43:42;;;;;;;31.70;28.77;;;5.80;99.90;;;;;;4972103;28;20455;-76
2022/01/02 00:46:13;;;;;;;34.43;31.17;;;5.80;99.90;;;;;;4972590;28;21001;-79
2022/01/02 00:48:42;;;;;;;34.10;31.07;;;5.80;99.90;;;;;;4972469;28;20456;-77
2022/01/02 00:51:17;;;;;;;31.70;28.57;;;5.70;99.90;;;;;;4972181;28;20454;-78
2022/01/02 00:53:48;;;;;;;32.30;29.10;;;5.70;99.90;;;;;;4972294;28;20463;-78
2022/01/02 00:56:18;;;;;;;31.87;28.67;;;5.70;99.90;;;;;;4972152;28;20579;-77
2022/01/02 00:58:51;;;;;;;31.57;29.00;;;5.70;99.90;;;;;;4971943;28;20449;-75
2022/01/02 01:01:23;;;;;;;30.40;27.77;;;5.70;99.90;;;;;;4972161;28;20502;-75
2022/01/02 01:03:54;;;;;;;33.23;30.30;;;5.60;99.90;;;;;;4972424;28;20460;-76
2022/01/02 01:06:25;;;;;;;34.33;31.03;;;5.60;99.90;;;;;;4972148;28;20488;-76
2022/01/02 01:08:56;;;;;;;34.13;31.00;;;5.60;99.90;;;;;;4972486;28;20550;-76
2022/01/02 01:11:26;;;;;;;32.57;29.67;;;5.50;99.90;;;;;;4975566;28;20455;-76
2022/01/02 01:13:53;;;;;;;33.63;30.73;;;5.60;99.90;;;;;;4972780;28;20478;-76
2022/01/02 01:16:20;;;;;;;31.00;28.40;;;5.50;99.90;;;;;;4971860;28;20481;-76
2022/01/02 01:18:48;;;;;;;30.40;27.80;;;5.50;99.90;;;;;;4971811;28;20456;-76
2022/01/02 01:21:15;;;;;;;33.13;30.00;;;5.60;99.90;;;;;;4972027;28;20745;-76
2022/01/02 01:23:41;;;;;;;35.40;31.90;;;5.50;99.90;;;;;;4971905;28;20478;-77
2022/01/02 01:26:11;;;;;;;31.60;28.70;;;5.60;99.90;;;;;;4971614;28;20530;-77
2022/01/02 01:28:38;;;;;;;32.20;29.37;;;5.50;99.90;;;;;;4972064;28;20821;-77
2022/01/02 01:31:05;;;;;;;31.77;28.50;;;5.50;99.90;;;;;;4971666;28;20480;-76
2022/01/02 01:33:32;;;;;;;33.53;30.43;;;5.50;99.90;;;;;;4971760;28;20460;-75
2022/01/02 01:35:59;;;;;;;30.83;28.13;;;5.50;99.90;;;;;;4971762;28;20490;-75
2022/01/02 01:38:25;;;;;;;31.57;28.90;;;5.50;99.90;;;;;;4971247;28;20514;-76
2022/01/02 01:40:58;;;;;;;30.00;27.10;;;5.40;99.90;;;;;;4971879;28;20994;-76
2022/01/02 01:43:37;;;;;;;30.37;27.57;;;5.40;99.90;;;;;;4971589;28;20457;-76
2022/01/02 01:46:04;;;;;;;30.13;27.37;;;5.40;99.90;;;;;;4971403;28;20452;-75
2022/01/02 01:48:31;;;;;;;31.07;28.27;;;5.40;99.90;;;;;;4971687;28;20460;-76
2022/01/02 01:50:58;;;;;;;30.73;27.83;;;5.40;99.90;;;;;;4971318;28;20468;-77
2022/01/02 01:53:25;;;;;;;29.87;27.27;;;5.40;99.90;;;;;;4969353;28;20447;-76
2022/01/02 01:55:55;;;;;;;35.17;31.37;;;5.40;99.90;;;;;;4971891;28;20460;-75
2022/01/02 01:58:21;;;;;;;30.97;28.17;;;5.40;99.90;;;;;;4971591;28;20466;-75
2022/01/02 02:00:50;;;;;;;29.23;26.43;;;5.40;99.90;;;;;;4971438;28;20522;-76
2022/01/02 02:03:16;;;;;;;33.20;30.10;;;5.30;99.90;;;;;;4971524;28;20821;-77
2022/01/02 02:05:43;;;;;;;31.63;28.90;;;5.20;99.90;;;;;;4971199;28;20459;-78
2022/01/02 02:08:10;;;;;;;32.70;29.63;;;5.10;99.90;;;;;;4971449;28;20851;-81
2022/01/02 02:10:39;;;;;;;31.50;28.70;;;5.10;99.90;;;;;;4971413;28;20463;-79
2022/01/02 02:13:07;;;;;;;30.57;27.67;;;5.10;99.90;;;;;;4971956;28;20496;-79
2022/01/02 02:15:34;;;;;;;29.60;27.17;;;5.00;99.90;;;;;;4971346;28;20934;-79
2022/01/02 02:18:02;;;;;;;28.17;25.67;;;5.00;99.90;;;;;;4971361;28;20453;-80
2022/01/02 02:20:32;;;;;;;29.43;26.83;;;4.90;99.90;;;;;;4971274;28;20456;-80
2022/01/02 02:23:00;;;;;;;32.60;29.20;;;4.90;99.90;;;;;;4971280;28;20447;-80
2022/01/02 02:25:29;;;;;;;30.10;27.40;;;4.80;99.90;;;;;;4971208;28;20887;-80
2022/01/02 02:27:58;;;;;;;32.23;29.17;;;4.80;99.90;;;;;;4970973;28;20491;-76
2022/01/02 02:30:26;;;;;;;29.20;26.90;;;4.80;99.90;;;;;;4971106;28;20845;-76
2022/01/02 03:14:05;;;;;;;30.33;27.53;;;4.70;99.90;;;;;;6053244;23;20423;31
2022/01/02 03:16:33;;;;;;;27.03;25.00;;;4.70;99.90;;;;;;4876717;29;20575;-72
2022/01/02 03:19:00;;;;;;;26.83;24.57;;;4.60;99.90;;;;;;4879046;29;20519;-72
2022/01/02 03:21:27;;;;;;;27.77;25.30;;;4.60;99.90;;;;;;4879019;29;20460;-73
2022/01/02 03:23:54;;;;;;;29.17;26.70;;;4.60;99.90;;;;;;4879104;29;20515;-75
2022/01/02 03:26:21;;;;;;;28.97;26.70;;;4.60;99.90;;;;;;4878762;29;20480;-73
2022/01/02 03:28:48;;;;;;;27.63;25.43;;;4.60;99.90;;;;;;4878733;29;20478;-72
2022/01/02 03:31:14;;;;;;;29.13;26.43;;;4.70;99.90;;;;;;4878891;29;20460;-79
2022/01/02 03:33:45;;;;;;;26.30;24.07;;;4.70;99.90;;;;;;4878965;29;20539;-73
2022/01/02 03:36:12;;;;;;;28.27;25.53;;;4.70;99.90;;;;;;4878784;29;20460;-72
2022/01/02 03:38:38;;;;;;;30.60;27.97;;;4.70;99.90;;;;;;4878777;29;20579;-73
2022/01/02 03:41:05;;;;;;;28.57;25.93;;;4.70;99.90;;;;;;4878778;29;20463;-72
2022/01/02 03:43:32;;;;;;;29.87;27.30;;;4.80;99.90;;;;;;4878511;29;20516;-72
2022/01/02 03:46:02;;;;;;;28.00;25.80;;;4.70;99.90;;;;;;4878461;29;20551;-74
2022/01/02 03:48:29;;;;;;;30.30;27.80;;;4.70;99.90;;;;;;4877589;29;21085;-73
2022/01/02 03:50:57;;;;;;;28.30;25.80;;;4.60;99.90;;;;;;4878599;29;20459;-73
2022/01/02 03:53:24;;;;;;;27.77;25.43;;;4.60;99.90;;;;;;4878598;29;20457;-72
2022/01/02 03:55:50;;;;;;;30.93;28.17;;;4.60;99.90;;;;;;4878461;29;20463;-73
2022/01/02 03:58:17;;;;;;;30.30;27.60;;;4.60;99.90;;;;;;4878166;29;20951;-73
2022/01/02 04:00:44;;;;;;;30.63;28.23;;;4.60;99.90;;;;;;4878061;29;20465;-73
2022/01/02 04:03:11;;;;;;;31.20;28.63;;;4.50;99.90;;;;;;4878273;29;20462;-74
2022/01/02 04:05:38;;;;;;;31.70;28.90;;;4.50;99.90;;;;;;4878364;29;20459;-72
2022/01/02 04:08:06;;;;;;;27.30;25.20;;;4.50;99.90;;;;;;4878129;29;20519;-73
2022/01/02 04:10:34;;;;;;;31.17;28.70;;;4.50;99.90;;;;;;4878077;29;20837;-74
2022/01/02 04:13:00;;;;;;;30.43;27.83;;;4.40;99.90;;;;;;4877879;29;21271;-73
2022/01/02 04:15:27;;;;;;;28.43;26.23;;;4.40;99.90;;;;;;4890766;29;20490;-73
2022/01/02 04:17:54;;;;;;;28.87;26.53;;;4.50;99.90;;;;;;4896868;29;21649;-72
2022/01/02 04:20:21;;;;;;;30.13;27.47;;;4.50;99.90;;;;;;4896704;29;20452;-73
2022/01/02 04:22:48;;;;;;;28.20;26.00;;;4.50;99.90;;;;;;4896430;29;20519;-73
2022/01/02 04:25:16;;;;;;;27.47;25.23;;;4.40;99.90;;;;;;4896440;29;20502;-74
2022/01/02 04:27:43;;;;;;;26.43;24.30;;;4.40;99.90;;;;;;4896270;29;20494;-73
2022/01/02 04:30:12;;;;;;;29.27;26.30;;;4.40;99.90;;;;;;4896488;29;20527;-74
2022/01/02 04:32:39;;;;;;;29.37;26.77;;;4.30;99.90;;;;;;4896588;29;20458;-73
2022/01/02 04:35:06;;;;;;;29.03;26.70;;;4.30;99.90;;;;;;4896380;29;20461;-73
2022/01/02 04:37:33;;;;;;;29.37;26.87;;;4.30;99.90;;;;;;4896292;29;20458;-73
2022/01/02 04:40:00;;;;;;;29.20;26.40;;;4.30;99.90;;;;;;4896240;29;20478;-73
2022/01/02 04:42:28;;;;;;;27.50;25.27;;;4.30;99.90;;;;;;4896191;29;20463;-73
2022/01/02 04:44:55;;;;;;;27.37;25.27;;;4.30;99.90;;;;;;4896197;29;20965;-72
2022/01/02 04:47:22;;;;;;;29.07;26.40;;;4.40;99.90;;;;;;4896196;29;20492;-72
2022/01/02 04:49:48;;;;;;;27.10;24.43;;;4.40;99.90;;;;;;4896079;29;20459;-73
2022/01/02 04:52:15;;;;;;;28.53;26.20;;;4.30;99.90;;;;;;4896157;29;20462;-73
2022/01/02 04:54:42;;;;;;;31.13;28.50;;;4.40;99.90;;;;;;4896061;29;20447;-72
2022/01/02 04:57:09;;;;;;;28.43;25.80;;;4.30;99.90;;;;;;4896231;29;20459;-73
2022/01/02 04:59:38;;;;;;;28.50;26.20;;;4.30;99.90;;;;;;4895027;29;20572;-73
2022/01/02 05:02:06;;;;;;;29.47;26.87;;;4.40;99.90;;;;;;4895911;29;20455;-74
2022/01/02 05:04:33;;;;;;;29.23;26.77;;;4.40;99.90;;;;;;4895861;29;20490;-73
2022/01/02 05:06:59;;;;;;;28.93;26.70;;;4.40;99.90;;;;;;4895776;29;20484;-74
2022/01/02 05:09:26;;;;;;;27.47;24.97;;;4.40;99.90;;;;;;4895883;29;20466;-73
2022/01/02 05:11:53;;;;;;;27.97;25.50;;;4.40;99.90;;;;;;4895962;29;20961;-74
2022/01/02 05:14:19;;;;;;;26.53;24.33;;;4.40;99.90;;;;;;4895494;29;20546;-74
2022/01/02 05:16:48;;;;;;;25.90;23.60;;;4.40;99.90;;;;;;4895692;29;20455;-74
2022/01/02 05:19:14;;;;;;;24.93;23.03;;;4.40;99.90;;;;;;4895632;29;20727;-71
2022/01/02 05:21:41;;;;;;;27.80;25.70;;;4.40;99.90;;;;;;4895638;29;20467;-73
2022/01/02 05:24:08;;;;;;;25.83;23.70;;;4.30;99.90;;;;;;4895459;29;20553;-74
2022/01/02 05:26:34;;;;;;;26.90;24.50;;;4.30;99.90;;;;;;4895533;29;20466;-73
2022/01/02 05:29:01;;;;;;;27.20;25.10;;;4.20;99.90;;;;;;4895367;29;20578;-73
2022/01/02 05:31:28;;;;;;;21.60;20.00;;;4.20;99.90;;;;;;4895388;29;20462;-72
2022/01/02 05:33:57;;;;;;;26.37;24.13;;;4.20;99.90;;;;;;4895693;29;20466;-72
2022/01/02 05:36:24;;;;;;;27.20;25.03;;;4.20;99.90;;;;;;4895611;29;20470;-73
2022/01/02 05:38:51;;;;;;;25.77;23.67;;;4.30;99.90;;;;;;4895685;29;20459;-73
2022/01/02 05:41:18;;;;;;;25.63;23.60;;;4.20;99.90;;;;;;4895433;29;20464;-72
2022/01/02 05:43:45;;;;;;;25.87;23.77;;;4.20;99.90;;;;;;4895275;29;20472;-72
2022/01/02 05:46:11;;;;;;;26.37;24.37;;;4.30;99.90;;;;;;4895344;29;20455;-74
2022/01/02 05:48:38;;;;;;;27.33;24.97;;;4.30;99.90;;;;;;4895366;29;20613;-74
2022/01/02 05:51:06;;;;;;;23.87;21.93;;;4.30;99.90;;;;;;4895427;29;20553;-72
2022/01/02 05:53:33;;;;;;;24.90;22.97;;;4.30;99.90;;;;;;4895223;29;20467;-72
2022/01/02 05:56:00;;;;;;;26.27;23.87;;;4.40;99.90;;;;;;4895225;29;21060;-72
2022/01/02 05:58:27;;;;;;;22.87;21.10;;;4.40;99.90;;;;;;4895197;29;20452;-75
2022/01/02 06:00:53;;;;;;;25.27;23.07;;;4.30;99.90;;;;;;4895365;29;20459;-74
2022/01/02 06:03:20;;;;;;;23.93;22.13;;;4.40;99.90;;;;;;4895132;29;20950;-72
2022/01/02 06:05:47;;;;;;;24.60;22.43;;;4.40;99.90;;;;;;4895128;29;20630;-72
2022/01/02 06:08:15;;;;;;;25.63;23.30;;;4.50;99.90;;;;;;4894982;29;21072;-74
2022/01/02 06:10:42;;;;;;;23.27;21.67;;;4.40;99.90;;;;;;4896206;29;20459;-72
2022/01/02 06:13:09;;;;;;;22.13;20.60;;;4.50;99.90;;;;;;4898938;29;20480;-72
2022/01/02 06:15:35;;;;;;;23.03;21.33;;;4.60;99.90;;;;;;4898719;29;20491;-71
2022/01/02 06:18:03;;;;;;;21.33;19.60;;;4.60;99.90;;;;;;4898849;29;20447;-72
2022/01/02 06:20:29;;;;;;;21.20;19.73;;;4.60;99.90;;;;;;4898869;29;20523;-72
2022/01/02 06:22:56;;;;;;;21.93;20.33;;;4.70;99.90;;;;;;4898773;29;20459;-72
2022/01/02 06:25:24;;;;;;;21.30;19.60;;;4.70;99.90;;;;;;4898944;29;20518;-72
2022/01/02 06:27:51;;;;;;;22.60;20.67;;;4.60;99.90;;;;;;4898839;29;20502;-74
2022/01/02 06:30:18;;;;;;;21.23;19.60;;;4.60;99.90;;;;;;4898706;29;20889;-72
2022/01/02 06:32:46;;;;;;;22.00;20.40;;;4.60;99.90;;;;;;4898472;29;20463;-72
2022/01/02 06:35:13;;;;;;;21.53;19.60;;;4.60;99.90;;;;;;4898640;29;20514;-72
2022/01/02 06:37:40;;;;;;;22.97;20.97;;;4.60;99.90;;;;;;4898739;29;20450;-72
2022/01/02 06:40:08;;;;;;;22.57;20.60;;;4.60;99.90;;;;;;4898669;29;20455;-72
2022/01/02 06:42:36;;;;;;;19.80;18.40;;;4.60;99.90;;;;;;4898362;29;20530;-71
2022/01/02 06:45:02;;;;;;;20.13;18.83;;;4.60;99.90;;;;;;4898463;29;20463;-72
2022/01/02 06:47:29;;;;;;;20.73;19.30;;;4.70;99.90;;;;;;4898152;29;20451;-72
2022/01/02 06:49:56;;;;;;;21.40;19.80;;;4.70;99.90;;;;;;4898335;29;20506;-72
2022/01/02 06:52:23;;;;;;;21.03;19.20;;;4.70;99.90;;;;;;4898540;29;20462;-73
2022/01/02 06:54:53;;;;;;;20.07;18.77;;;4.80;99.90;;;;;;4898146;29;20461;-72
2022/01/02 06:57:19;;;;;;;20.23;18.77;;;4.80;99.90;;;;;;4898211;29;20467;-72
2022/01/02 06:59:48;;;;;;;19.60;18.20;;;4.80;99.90;;;;;;4890882;29;20487;-71
2022/01/02 07:02:15;;;;;;;19.80;18.27;;;4.90;99.90;;;;;;4884033;29;20456;-72
2022/01/02 07:04:42;;;;;;;21.93;20.40;;;4.90;99.90;;;;;;4880547;29;20471;-72
2022/01/02 07:07:08;;;;;;;20.50;18.87;;;4.90;99.90;;;;;;4888793;29;20463;-72
2022/01/02 07:09:37;;;;;;;20.90;19.37;;;4.90;99.90;;;;;;4879393;29;20499;-71
2022/01/02 07:12:05;;;;;;;20.73;19.03;;;4.90;99.90;;;;;;4879332;29;20465;-72
2022/01/02 07:14:31;;;;;;;22.07;20.43;;;4.90;99.90;;;;;;4879040;29;20891;-72
2022/01/02 07:17:00;;;;;;;21.30;19.67;;;4.90;99.90;;;;;;4879425;29;20534;-71
2022/01/02 07:19:27;;;;;;;19.83;18.33;;;5.00;99.90;;;;;;4879445;29;20510;-71
2022/01/02 07:21:55;;;;;;;19.17;17.93;;;5.10;99.90;;;;;;4878475;29;20480;-72
2022/01/02 07:24:21;;;;;;;18.43;17.20;;;5.20;99.90;;;;;;4878969;29;20460;-71
2022/01/02 07:26:48;;;;;;;18.93;17.70;;;5.30;99.90;;;;;;4879145;29;20466;-72
2022/01/02 07:29:15;;;;;;;21.23;19.73;;;5.50;99.90;;;;;;4878831;29;20493;-72
2022/01/02 07:31:42;;;;;;;18.90;17.30;;;5.60;99.90;;;;;;4879244;29;20463;-73
2022/01/02 07:34:10;;;;;;;19.43;18.20;;;5.60;99.90;;;;;;4879057;29;20904;-72
2022/01/02 07:36:39;;;;;;;18.03;16.73;;;5.60;99.90;;;;;;4879214;29;20509;-72
2022/01/02 07:39:06;;;;;;;18.27;17.07;;;5.60;99.90;;;;;;4878994;29;20514;-71
2022/01/02 07:41:33;;;;;;;17.57;16.37;;;5.60;99.90;;;;;;4878827;29;20875;-72
2022/01/02 07:44:03;;;;;;;19.30;18.00;;;5.60;99.90;;;;;;4878758;29;20570;-72
2022/01/02 07:46:30;;;;;;;19.17;17.67;;;5.60;99.90;;;;;;4878425;29;20468;-72
2022/01/02 07:48:57;;;;;;;17.60;16.40;;;5.50;99.90;;;;;;4878980;29;20504;-72
2022/01/02 07:51:25;;;;;;;16.40;15.30;;;5.50;99.90;;;;;;4878836;29;20465;-71
2022/01/02 07:53:51;;;;;;;17.20;16.10;;;5.50;99.90;;;;;;4878676;29;20843;-72
2022/01/02 07:56:18;;;;;;;19.00;17.60;;;5.50;99.90;;;;;;4878454;29;20455;-71
2022/01/02 07:58:45;;;;;;;17.63;16.43;;;5.40;99.90;;;;;;4878048;29;20456;-71
2022/01/02 08:01:11;;;;;;;17.10;16.03;;;5.40;99.90;;;;;;4878513;29;20855;-72
2022/01/02 08:03:38;;;;;;;17.80;16.50;;;5.50;99.90;;;;;;4878506;29;20460;-71
2022/01/02 08:06:05;;;;;;;17.93;16.80;;;5.50;99.90;;;;;;4880352;29;21060;-72
2022/01/02 08:08:33;;;;;;;17.17;16.07;;;5.40;99.90;;;;;;4886361;29;20520;-72
2022/01/02 08:11:00;;;;;;;18.67;17.43;;;5.40;99.90;;;;;;4878123;29;20629;-72
2022/01/02 08:13:26;;;;;;;17.37;16.27;;;5.40;99.90;;;;;;4878222;29;20823;-72
2022/01/02 08:15:53;;;;;;;17.73;16.77;;;5.40;99.90;;;;;;4878287;29;20908;-75
2022/01/02 08:18:20;;;;;;;17.83;16.83;;;5.40;99.90;;;;;;4878234;29;20456;-75
2022/01/02 08:20:46;;;;;;;18.23;16.60;;;5.40;99.90;;;;;;4877992;29;20970;-74
2022/01/02 08:23:13;;;;;;;18.20;16.70;;;5.50;99.90;;;;;;4877961;29;20536;-74
2022/01/02 08:25:42;;;;;;;22.03;20.40;;;5.40;99.90;;;;;;4878142;29;20519;-73
2022/01/02 08:28:09;;;;;;;17.93;16.63;;;5.40;99.90;;;;;;4878027;29;20494;-74
2022/01/02 08:30:35;;;;;;;14.90;14.10;;;5.70;99.90;;;;;;4877947;29;20466;-74
2022/01/02 08:33:02;;;;;;;17.40;16.40;;;6.10;99.90;;;;;;4877840;29;20881;-72
2022/01/02 08:35:29;;;;;;;15.90;15.00;;;6.40;99.90;;;;;;4877820;29;20575;-74
2022/01/02 08:37:55;;;;;;;15.10;14.30;;;6.90;99.90;;;;;;4877770;29;20463;-73
2022/01/02 08:40:23;;;;;;;16.20;15.10;;;6.90;99.90;;;;;;4878078;29;20481;-74
2022/01/02 08:42:51;;;;;;;15.90;14.80;;;6.80;99.90;;;;;;4877787;29;20470;-73
2022/01/02 08:45:18;;;;;;;16.87;15.80;;;6.90;99.90;;;;;;4877658;29;20467;-78
2022/01/02 08:47:44;;;;;;;15.83;14.83;;;7.20;99.90;;;;;;4877383;29;20463;-74
2022/01/02 08:50:11;;;;;;;15.07;14.27;;;7.10;99.90;;;;;;4877598;29;20502;-77
2022/01/02 08:52:38;;;;;;;15.80;14.80;;;6.80;99.90;;;;;;4877694;29;20952;-73
2022/01/02 08:55:06;;;;;;;14.77;13.87;;;6.80;99.90;;;;;;4877179;29;20474;-73
2022/01/02 08:57:33;;;;;;;14.37;13.67;;;7.00;99.90;;;;;;4875171;29;20466;-73
2022/01/02 09:00:01;;;;;;;14.33;13.57;;;7.40;99.90;;;;;;4876938;29;20547;-72
2022/01/02 09:02:27;;;;;;;15.47;14.57;;;7.70;99.90;;;;;;4876698;29;20461;-73
2022/01/02 09:04:54;;;;;;;16.03;15.03;;;7.60;99.90;;;;;;4877142;29;20499;-73
2022/01/02 09:07:21;;;;;;;15.03;14.00;;;7.40;99.90;;;;;;4877055;29;20874;-73
2022/01/02 09:09:47;;;;;;;15.07;14.03;;;7.40;99.90;;;;;;4876798;29;20987;-72
2022/01/02 09:12:15;;;;;;;15.10;14.27;;;7.50;99.90;;;;;;4876676;29;20464;-73
2022/01/02 09:14:42;;;;;;;15.77;14.80;;;7.60;99.90;;;;;;4876436;29;21091;-73
2022/01/02 09:17:10;;;;;;;15.10;14.00;;;7.80;99.90;;;;;;4876983;29;20546;-73
2022/01/02 09:19:37;;;;;;;14.80;13.90;;;8.20;99.90;;;;;;4876951;29;20444;-73
2022/01/02 09:22:04;;;;;;;15.27;14.37;;;8.50;99.90;;;;;;4876613;29;20524;-73
2022/01/02 09:24:31;;;;;;;15.03;14.13;;;8.90;99.90;;;;;;4876653;29;20865;-74
2022/01/02 09:26:58;;;;;;;13.70;12.80;;;9.60;99.90;;;;;;4876639;29;20460;-73
2022/01/02 09:29:25;;;;;;;14.67;13.77;;;9.80;99.90;;;;;;4876549;29;20501;-74
2022/01/02 09:31:52;;;;;;;14.47;13.70;;;10.20;99.90;;;;;;4876619;29;20803;-73
2022/01/02 09:34:20;;;;;;;14.83;13.93;;;9.90;99.90;;;;;;4876464;29;20456;-75
2022/01/02 09:36:47;;;;;;;14.30;13.30;;;9.60;99.90;;;;;;4876325;29;20915;-74
2022/01/02 09:39:13;;;;;;;14.53;13.70;;;9.40;99.90;;;;;;4876359;29;20687;-74
2022/01/02 09:41:40;;;;;;;14.90;13.90;;;9.30;99.90;;;;;;4876596;29;20456;-74
2022/01/02 09:44:07;;;;;;;15.30;14.40;;;9.20;99.90;;;;;;4876662;29;20516;-74
2022/01/02 09:46:35;;;;;;;15.43;14.53;;;9.10;99.90;;;;;;4875694;29;20886;-74
2022/01/02 09:49:02;;;;;;;15.13;13.90;;;9.00;99.90;;;;;;4876075;29;20526;-74
2022/01/02 09:51:30;;;;;;;14.83;14.03;;;8.90;99.90;;;;;;4876185;29;20460;-74
2022/01/02 09:53:57;;;;;;;14.57;13.40;;;8.90;99.90;;;;;;4876116;29;20926;-74
2022/01/02 09:56:25;;;;;;;14.10;13.30;;;8.80;99.90;;;;;;4876412;29;20465;-74
2022/01/02 09:58:52;;;;;;;14.70;13.90;;;8.90;99.90;;;;;;4876306;29;20456;-73
2022/01/02 10:01:21;;;;;;;14.17;13.17;;;9.00;99.90;;;;;;4876144;29;20516;-73
2022/01/02 10:03:50;;;;;;;13.83;12.93;;;9.00;99.90;;;;;;4876068;29;20943;-73
2022/01/02 10:06:18;;;;;;;14.07;13.37;;;9.00;99.90;;;;;;4876094;29;20504;-74
2022/01/02 10:08:46;;;;;;;14.80;13.90;;;9.10;99.90;;;;;;4876045;29;20522;-74
2022/01/02 10:11:19;;;;;;;14.73;13.83;;;9.10;99.90;;;;;;4876008;29;20871;-73
2022/01/02 10:13:48;;;;;;;14.33;13.43;;;9.10;99.90;;;;;;4875991;29;20624;-74
2022/01/02 10:16:30;;;;;;;14.83;13.93;;;9.00;99.90;;;;;;4876143;29;20452;-73
2022/01/02 10:18:58;;;;;;;14.27;13.47;;;9.10;99.90;;;;;;4875973;29;20500;-76
2022/01/02 10:21:33;;;;;;;13.80;13.00;;;9.10;99.90;;;;;;4876221;29;20879;-73
2022/01/02 10:24:19;;;;;;;13.73;12.93;;;9.10;99.90;;;;;;4876160;29;20452;-73
2022/01/02 10:27:08;;;;;;;14.30;13.30;;;9.10;99.90;;;;;;4875967;29;20519;-73
2022/01/02 10:29:43;;;;;;;13.30;12.60;;;9.00;99.90;;;;;;4876119;29;20905;-73
2022/01/02 10:32:31;;;;;;;14.63;13.63;;;8.90;99.90;;;;;;4876071;29;20464;-73
2022/01/02 10:35:16;;;;;;;15.00;14.10;;;8.80;99.90;;;;;;4875971;29;20959;-73
2022/01/02 10:37:48;;;;;;;14.70;13.90;;;8.80;99.90;;;;;;4875798;29;20462;-73
2022/01/02 10:40:31;;;;;;;14.20;13.40;;;8.80;99.90;;;;;;4875910;29;20973;-73
2022/01/02 10:43:00;;;;;;;13.33;12.43;;;8.80;99.90;;;;;;4875865;29;20456;-73
2022/01/02 10:45:36;;;;;;;14.20;13.40;;;8.80;99.90;;;;;;4875899;29;20942;-73
2022/01/02 10:48:04;;;;;;;12.97;12.27;;;9.00;99.90;;;;;;4875764;29;21013;-73
2022/01/02 10:50:30;;;;;;;12.60;11.80;;;9.10;99.90;;;;;;4875601;29;20484;-72
2022/01/02 10:52:57;;;;;;;14.43;13.53;;;9.30;99.90;;;;;;4875792;29;20935;-73
2022/01/02 10:55:27;;;;;;;14.17;13.37;;;9.20;99.90;;;;;;4876266;29;20820;-73
2022/01/02 10:57:57;;;;;;;14.60;13.70;;;9.20;99.90;;;;;;4876692;29;20467;-73
2022/01/02 11:00:25;;;;;;;13.60;12.80;;;9.00;99.90;;;;;;4879587;29;20448;-73
2022/01/02 11:02:52;;;;;;;13.80;13.03;;;8.90;99.90;;;;;;4879296;29;20871;-73
2022/01/02 11:05:22;;;;;;;15.60;14.50;;;8.90;99.90;;;;;;4878746;29;20468;-73
2022/01/02 11:07:50;;;;;;;15.27;14.27;;;8.70;99.90;;;;;;4878796;29;20508;-73
2022/01/02 11:10:19;;;;;;;17.23;15.93;;;8.60;99.90;;;;;;4878726;29;20582;-73
2022/01/02 11:12:49;;;;;;;13.90;12.90;;;8.60;99.90;;;;;;4878851;29;20484;-73
2022/01/02 11:15:17;;;;;;;14.20;13.17;;;8.70;99.90;;;;;;4878533;29;21080;-74
2022/01/02 11:17:44;;;;;;;15.20;14.20;;;8.70;99.90;;;;;;4878914;29;20463;-74
2022/01/02 11:20:13;;;;;;;14.73;13.93;;;8.80;99.90;;;;;;4878822;29;20452;-74
2022/01/02 11:22:45;;;;;;;15.33;14.37;;;9.00;99.90;;;;;;4878958;29;20516;-74
2022/01/02 11:25:19;;;;;;;15.57;14.60;;;9.00;99.90;;;;;;4878637;29;20472;-74
2022/01/02 11:27:52;;;;;;;15.57;14.67;;;9.00;99.90;;;;;;4878461;29;20837;-74
2022/01/02 11:30:39;;;;;;;13.80;12.90;;;9.20;99.90;;;;;;4878455;29;20623;-74
2022/01/02 11:33:09;;;;;;;14.37;13.57;;;9.30;99.90;;;;;;4878536;29;20465;-74
2022/01/02 11:35:38;;;;;;;14.63;13.73;;;9.40;99.90;;;;;;4878543;29;20456;-74
2022/01/02 11:38:06;;;;;;;15.20;14.10;;;9.50;99.90;;;;;;4878356;29;20452;-74
2022/01/02 11:40:51;;;;;;;15.57;14.37;;;9.70;99.90;;;;;;4878202;29;20547;-73
2022/01/02 11:43:52;;;;;;;16.30;15.17;;;9.60;99.90;;;;;;4878060;29;20464;-73
2022/01/02 11:46:21;;;;;;;14.57;13.77;;;9.60;99.90;;;;;;4878183;29;20464;-73
2022/01/02 11:49:27;;;;;;;14.63;13.63;;;9.50;99.90;;;;;;4878166;29;20466;-74
2022/01/02 11:52:06;;;;;;;14.53;13.47;;;9.40;99.90;;;;;;4878479;29;20525;-73
2022/01/02 11:54:50;;;;;;;16.23;15.10;;;9.30;99.90;;;;;;4878201;29;20523;-74
2022/01/02 11:57:46;;;;;;;16.37;15.10;;;9.40;99.90;;;;;;4877908;29;20832;-74
2022/01/02 12:00:33;;;;;;;16.90;15.67;;;9.40;99.90;;;;;;4845177;29;20528;-73
2022/01/02 12:02:59;;;;;;;15.57;14.53;;;9.40;99.90;;;;;;4878057;29;20447;-74
2022/01/02 12:05:26;;;;;;;15.40;14.20;;;9.50;99.90;;;;;;4877988;29;20452;-73
2022/01/02 12:07:54;;;;;;;16.00;15.00;;;9.50;99.90;;;;;;4877813;29;20463;-74
2022/01/02 12:10:24;;;;;;;15.30;14.20;;;9.60;99.90;;;;;;4877538;29;21022;-74
2022/01/02 12:13:16;;;;;;;15.97;14.80;;;9.70;99.90;;;;;;4877568;29;20482;-74
2022/01/02 12:16:10;;;;;;;15.17;14.27;;;9.70;99.90;;;;;;4877506;29;20557;-74
2022/01/02 12:18:56;;;;;;;15.33;14.43;;;9.80;99.90;;;;;;4877899;29;20504;-75
2022/01/02 12:21:24;;;;;;;13.50;12.60;;;9.90;99.90;;;;;;4877786;29;20455;-74
2022/01/02 12:23:54;;;;;;;15.30;14.40;;;10.10;99.90;;;;;;4877635;29;20888;-74
2022/01/02 12:26:26;;;;;;;13.90;13.00;;;10.40;99.90;;;;;;4877575;29;20467;-73
2022/01/02 12:28:57;;;;;;;13.00;12.40;;;10.90;99.90;;;;;;4877736;29;20518;-74
2022/01/02 12:31:28;;;;;;;13.33;12.60;;;11.40;99.90;;;;;;4877565;29;20491;-73
2022/01/02 12:34:02;;;;;;;12.30;11.70;;;11.80;99.90;;;;;;4877791;29;20463;-73
2022/01/02 12:36:29;;;;;;;12.90;12.40;;;12.30;99.90;;;;;;4877495;29;20456;-75
2022/01/02 12:38:58;;;;;;;13.23;12.53;;;12.80;99.90;;;;;;4877585;29;20935;-75
2022/01/02 12:41:27;;;;;;;14.20;13.47;;;13.20;99.90;;;;;;4877521;29;20484;-74
2022/01/02 12:43:55;;;;;;;12.90;12.17;;;13.50;99.90;;;;;;4877607;29;20460;-75
2022/01/02 12:46:39;;;;;;;14.47;13.77;;;13.50;99.90;;;;;;4877465;29;20452;-75
2022/01/02 12:49:08;;;;;;;14.30;13.57;;;13.40;99.90;;;;;;4875940;29;20475;-75
2022/01/02 12:51:36;;;;;;;12.73;12.03;;;13.30;99.90;;;;;;4877107;29;20452;-75
2022/01/02 12:54:04;;;;;;;12.93;12.33;;;13.30;99.90;;;;;;4876988;29;20463;-75
2022/01/02 12:56:33;;;;;;;13.30;12.60;;;13.30;99.90;;;;;;4876953;29;20898;-74
2022/01/02 12:59:14;;;;;;;13.30;12.60;;;13.50;99.90;;;;;;4876836;29;21118;-74
2022/01/02 13:01:56;;;;;;;12.43;11.73;;;13.50;99.90;;;;;;4876941;29;20475;-74
2022/01/02 13:04:25;;;;;;;13.33;12.63;;;13.70;99.90;;;;;;4877186;29;20478;-74
2022/01/02 13:06:53;;;;;;;12.83;12.23;;;14.00;99.90;;;;;;4876922;29;20456;-74
2022/01/02 13:09:24;;;;;;;12.33;11.73;;;14.30;99.90;;;;;;4876655;29;20460;-75
2022/01/02 13:11:50;;;;;;;11.90;11.20;;;14.60;99.90;;;;;;4876940;29;20893;-75
2022/01/02 13:14:33;;;;;;;11.80;11.30;;;14.60;99.90;;;;;;4876727;29;20496;-73
2022/01/02 13:17:03;;;;;;;11.90;11.40;;;14.80;99.20;;;;;;4876873;29;20467;-74
2022/01/02 13:19:30;;;;;;;12.97;12.30;;;15.00;99.30;;;;;;4876498;29;20601;-74
2022/01/02 13:21:57;;;;;;;11.63;11.13;;;15.00;99.20;;;;;;4876115;29;20468;-73
2022/01/02 13:24:26;;;;;;;12.50;11.90;;;15.10;99.10;;;;;;4876812;29;20523;-74
2022/01/02 13:26:53;;;;;;;12.83;12.13;;;15.00;99.30;;;;;;4876911;29;20519;-73